sensor_id;sensor_type;location;lat;lon;timestamp;pressure;altitude;pressure_sealevel;temperature;humidity
64668;BME280;51077;42.716;23.344;2024-01-27T00:00:54;95832.47;;;7.45;40.78
64668;BME280;51077;42.716;23.344;2024-01-27T00:03:19;95818.06;;;7.45;41.34
64668;BME280;51077;42.716;23.344;2024-01-27T00:05:44;95820.31;;;7.46;41.37
64668;BME280;51077;42.716;23.344;2024-01-27T00:08:10;95819.28;;;7.44;41.17
64668;BME280;51077;42.716;23.344;2024-01-27T00:10:35;95826.72;;;7.43;41.40
64668;BME280;51077;42.716;23.344;2024-01-27T00:13:01;95825.50;;;7.44;41.17
64668;BME280;51077;42.716;23.344;2024-01-27T00:15:26;95822.75;;;7.44;41.25
64668;BME280;51077;42.716;23.344;2024-01-27T00:17:51;95813.56;;;7.42;41.19
64668;BME280;51077;42.716;23.344;2024-01-27T00:20:17;95797.38;;;7.38;41.49
64668;BME280;51077;42.716;23.344;2024-01-27T00:22:42;95810.75;;;7.36;41.28
64668;BME280;51077;42.716;23.344;2024-01-27T00:25:08;95810.75;;;7.36;41.56
64668;BME280;51077;42.716;23.344;2024-01-27T00:27:33;95813.50;;;7.36;41.62
64668;BME280;51077;42.716;23.344;2024-01-27T00:29:59;95813.50;;;7.36;41.83
64668;BME280;51077;42.716;23.344;2024-01-27T00:32:24;95807.75;;;7.34;41.47
64668;BME280;51077;42.716;23.344;2024-01-27T00:34:49;95808.97;;;7.33;41.42
64668;BME280;51077;42.716;23.344;2024-01-27T00:37:15;95814.94;;;7.32;41.29
64668;BME280;51077;42.716;23.344;2024-01-27T00:39:40;95808.69;;;7.31;41.52
64668;BME280;51077;42.716;23.344;2024-01-27T00:42:06;95798.25;;;7.29;41.67
64668;BME280;51077;42.716;23.344;2024-01-27T00:44:31;95804.19;;;7.28;41.67
64668;BME280;51077;42.716;23.344;2024-01-27T00:46:56;95802.69;;;7.27;41.43
64668;BME280;51077;42.716;23.344;2024-01-27T00:49:22;95804.19;;;7.28;41.28
64668;BME280;51077;42.716;23.344;2024-01-27T00:51:47;95810.88;;;7.27;41.71
64668;BME280;51077;42.716;23.344;2024-01-27T00:54:13;95798.25;;;7.29;41.45
64668;BME280;51077;42.716;23.344;2024-01-27T00:56:38;95806.94;;;7.28;41.47
64668;BME280;51077;42.716;23.344;2024-01-27T00:59:03;95799.19;;;7.26;41.49
64668;BME280;51077;42.716;23.344;2024-01-27T01:01:29;95794.72;;;7.23;41.63
64668;BME280;51077;42.716;23.344;2024-01-27T01:03:54;95796.94;;;7.25;41.46
64668;BME280;51077;42.716;23.344;2024-01-27T01:06:20;95798.94;;;7.24;41.70
64668;BME280;51077;42.716;23.344;2024-01-27T01:08:45;95797.16;;;7.21;41.40
64668;BME280;51077;42.716;23.344;2024-01-27T01:11:10;95804.09;;;7.22;41.46
64668;BME280;51077;42.716;23.344;2024-01-27T01:13:36;95802.16;;;7.23;41.82
64668;BME280;51077;42.716;23.344;2024-01-27T01:16:01;95806.09;;;7.22;41.62
64668;BME280;51077;42.716;23.344;2024-01-27T01:18:28;95815.50;;;7.21;41.50
64668;BME280;51077;42.716;23.344;2024-01-27T01:20:54;95809.31;;;7.20;41.92
64668;BME280;51077;42.716;23.344;2024-01-27T01:23:19;95807.06;;;7.19;41.71
64668;BME280;51077;42.716;23.344;2024-01-27T01:25:44;95797.16;;;7.21;41.69
64668;BME280;51077;42.716;23.344;2024-01-27T01:28:10;95797.63;;;7.20;41.72
64668;BME280;51077;42.716;23.344;2024-01-27T01:30:36;95800.06;;;7.18;41.80
64668;BME280;51077;42.716;23.344;2024-01-27T01:33:01;95791.88;;;7.18;42.28
64668;BME280;51077;42.716;23.344;2024-01-27T01:35:27;95800.84;;;7.18;41.85
64668;BME280;51077;42.716;23.344;2024-01-27T01:37:52;95796.78;;;7.14;42.08
64668;BME280;51077;42.716;23.344;2024-01-27T01:40:18;95794.06;;;7.14;42.11
64668;BME280;51077;42.716;23.344;2024-01-27T01:42:43;95792.56;;;7.13;42.68
64668;BME280;51077;42.716;23.344;2024-01-27T01:45:11;95796.34;;;7.15;42.55
64668;BME280;51077;42.716;23.344;2024-01-27T01:47:38;95789.09;;;7.12;42.38
64668;BME280;51077;42.716;23.344;2024-01-27T01:50:05;95788.59;;;7.14;42.36
64668;BME280;51077;42.716;23.344;2024-01-27T01:52:31;95782.19;;;7.17;42.49
64668;BME280;51077;42.716;23.344;2024-01-27T01:54:56;95785.69;;;7.17;42.49
64668;BME280;51077;42.716;23.344;2024-01-27T01:57:21;95789.44;;;7.20;42.29
64668;BME280;51077;42.716;23.344;2024-01-27T01:59:47;95778.78;;;7.22;42.36
64668;BME280;51077;42.716;23.344;2024-01-27T02:02:12;95773.31;;;7.22;42.41
64668;BME280;51077;42.716;23.344;2024-01-27T02:04:42;95771.16;;;7.26;42.63
64668;BME280;51077;42.716;23.344;2024-01-27T02:07:07;95772.66;;;7.27;42.53
64668;BME280;51077;42.716;23.344;2024-01-27T02:09:33;95760.78;;;7.30;42.34
64668;BME280;51077;42.716;23.344;2024-01-27T02:11:58;95745.88;;;7.31;42.11
64668;BME280;51077;42.716;23.344;2024-01-27T02:14:24;95748.16;;;7.33;42.11
64668;BME280;51077;42.716;23.344;2024-01-27T02:16:51;95749.66;;;7.34;41.78
64668;BME280;51077;42.716;23.344;2024-01-27T02:19:17;95751.44;;;7.37;42.12
64668;BME280;51077;42.716;23.344;2024-01-27T02:21:42;95757.91;;;7.39;42.28
64668;BME280;51077;42.716;23.344;2024-01-27T02:24:07;95759.69;;;7.42;42.25
64668;BME280;51077;42.716;23.344;2024-01-27T02:26:33;95764.94;;;7.46;41.78
64668;BME280;51077;42.716;23.344;2024-01-27T02:28:58;95762.47;;;7.48;42.19
64668;BME280;51077;42.716;23.344;2024-01-27T02:31:24;95752.28;;;7.48;41.82
64668;BME280;51077;42.716;23.344;2024-01-27T02:33:49;95746.38;;;7.50;41.52
64668;BME280;51077;42.716;23.344;2024-01-27T02:36:15;95749.38;;;7.52;41.90
64668;BME280;51077;42.716;23.344;2024-01-27T02:38:40;95760.84;;;7.56;41.84
64668;BME280;51077;42.716;23.344;2024-01-27T02:41:06;95761.59;;;7.56;41.74
64668;BME280;51077;42.716;23.344;2024-01-27T02:43:31;95758.66;;;7.60;41.53
64668;BME280;51077;42.716;23.344;2024-01-27T02:45:56;95748.00;;;7.62;41.87
64668;BME280;51077;42.716;23.344;2024-01-27T02:48:22;95748.00;;;7.62;41.46
64668;BME280;51077;42.716;23.344;2024-01-27T02:50:47;95747.50;;;7.64;41.72
64668;BME280;51077;42.716;23.344;2024-01-27T02:53:12;95738.81;;;7.65;41.55
64668;BME280;51077;42.716;23.344;2024-01-27T02:55:38;95740.34;;;7.66;41.83
64668;BME280;51077;42.716;23.344;2024-01-27T02:58:04;95742.59;;;7.68;41.79
64668;BME280;51077;42.716;23.344;2024-01-27T03:00:29;95748.06;;;7.68;41.50
64668;BME280;51077;42.716;23.344;2024-01-27T03:02:55;95746.31;;;7.70;41.61
64668;BME280;51077;42.716;23.344;2024-01-27T03:05:23;95744.63;;;7.73;41.47
64668;BME280;51077;42.716;23.344;2024-01-27T03:07:49;95755.06;;;7.74;41.29
64668;BME280;51077;42.716;23.344;2024-01-27T03:10:14;95754.31;;;7.74;41.28
64668;BME280;51077;42.716;23.344;2024-01-27T03:12:40;95753.84;;;7.75;41.34
64668;BME280;51077;42.716;23.344;2024-01-27T03:15:05;95753.84;;;7.75;41.72
64668;BME280;51077;42.716;23.344;2024-01-27T03:17:31;95745.91;;;7.77;41.62
64668;BME280;51077;42.716;23.344;2024-01-27T03:19:56;95752.88;;;7.78;41.52
64668;BME280;51077;42.716;23.344;2024-01-27T03:22:22;95750.44;;;7.80;41.56
64668;BME280;51077;42.716;23.344;2024-01-27T03:24:47;95757.13;;;7.79;41.46
64668;BME280;51077;42.716;23.344;2024-01-27T03:27:12;95759.88;;;7.79;41.19
64668;BME280;51077;42.716;23.344;2024-01-27T03:29:38;95756.91;;;7.83;41.16
64668;BME280;51077;42.716;23.344;2024-01-27T03:32:03;95751.66;;;7.79;41.20
64668;BME280;51077;42.716;23.344;2024-01-27T03:34:29;95753.63;;;7.79;41.29
64668;BME280;51077;42.716;23.344;2024-01-27T03:36:54;95749.47;;;7.84;41.78
64668;BME280;51077;42.716;23.344;2024-01-27T03:39:20;95745.44;;;7.79;41.88
64668;BME280;51077;42.716;23.344;2024-01-27T03:41:45;95744.47;;;7.82;42.13
64668;BME280;51077;42.716;23.344;2024-01-27T03:44:11;95738.47;;;7.78;42.25
64668;BME280;51077;42.716;23.344;2024-01-27T03:46:36;95737.03;;;7.82;42.37
64668;BME280;51077;42.716;23.344;2024-01-27T03:49:04;95743.47;;;7.79;42.54
64668;BME280;51077;42.716;23.344;2024-01-27T03:51:29;95736.03;;;7.80;42.72
64668;BME280;51077;42.716;23.344;2024-01-27T03:53:55;95737.03;;;7.82;42.84
64668;BME280;51077;42.716;23.344;2024-01-27T03:56:20;95736.28;;;7.82;42.90
64668;BME280;51077;42.716;23.344;2024-01-27T03:58:46;95740.50;;;7.83;43.13
64668;BME280;51077;42.716;23.344;2024-01-27T04:01:11;95735.31;;;7.85;43.08
64668;BME280;51077;42.716;23.344;2024-01-27T04:03:36;95744.53;;;7.88;43.37
64668;BME280;51077;42.716;23.344;2024-01-27T04:06:02;95746.03;;;7.89;43.32
64668;BME280;51077;42.716;23.344;2024-01-27T04:08:30;95742.06;;;7.90;43.43
64668;BME280;51077;42.716;23.344;2024-01-27T04:10:55;95735.09;;;7.89;44.11
64668;BME280;51077;42.716;23.344;2024-01-27T04:13:20;95733.59;;;7.88;44.17
64668;BME280;51077;42.716;23.344;2024-01-27T04:15:46;95728.13;;;7.88;44.21
64668;BME280;51077;42.716;23.344;2024-01-27T04:18:11;95722.66;;;7.88;44.38
64668;BME280;51077;42.716;23.344;2024-01-27T04:20:37;95724.94;;;7.89;44.42
64668;BME280;51077;42.716;23.344;2024-01-27T04:23:03;95727.38;;;7.87;44.73
64668;BME280;51077;42.716;23.344;2024-01-27T04:25:29;95742.56;;;7.88;44.90
64668;BME280;51077;42.716;23.344;2024-01-27T04:27:54;95736.31;;;7.88;45.27
64668;BME280;51077;42.716;23.344;2024-01-27T04:30:20;95728.91;;;7.88;45.32
64668;BME280;51077;42.716;23.344;2024-01-27T04:32:45;95734.81;;;7.87;45.16
64668;BME280;51077;42.716;23.344;2024-01-27T04:35:11;95731.88;;;7.90;44.97
64668;BME280;51077;42.716;23.344;2024-01-27T04:37:37;95734.63;;;7.90;45.26
64668;BME280;51077;42.716;23.344;2024-01-27T04:40:06;95736.13;;;7.91;45.24
64668;BME280;51077;42.716;23.344;2024-01-27T04:42:38;95734.88;;;7.92;45.69
64668;BME280;51077;42.716;23.344;2024-01-27T04:45:04;95731.66;;;7.94;45.56
64668;BME280;51077;42.716;23.344;2024-01-27T04:47:30;95735.91;;;7.95;45.35
64668;BME280;51077;42.716;23.344;2024-01-27T04:49:56;95735.41;;;7.96;45.20
64668;BME280;51077;42.716;23.344;2024-01-27T04:52:23;95734.66;;;7.96;45.14
64668;BME280;51077;42.716;23.344;2024-01-27T04:54:48;95736.19;;;7.97;45.57
64668;BME280;51077;42.716;23.344;2024-01-27T04:57:14;95737.41;;;7.96;45.19
64668;BME280;51077;42.716;23.344;2024-01-27T04:59:39;95738.63;;;7.95;45.60
64668;BME280;51077;42.716;23.344;2024-01-27T05:02:04;95750.06;;;7.93;45.63
64668;BME280;51077;42.716;23.344;2024-01-27T05:04:30;95747.59;;;7.95;45.53
64668;BME280;51077;42.716;23.344;2024-01-27T05:06:55;95749.56;;;7.95;45.50
64668;BME280;51077;42.716;23.344;2024-01-27T05:09:21;95750.31;;;7.95;45.84
64668;BME280;51077;42.716;23.344;2024-01-27T05:11:46;95759.00;;;7.94;45.83
64668;BME280;51077;42.716;23.344;2024-01-27T05:14:13;95756.75;;;7.92;46.10
64668;BME280;51077;42.716;23.344;2024-01-27T05:16:38;95751.56;;;7.94;46.06
64668;BME280;51077;42.716;23.344;2024-01-27T05:19:04;95759.00;;;7.94;45.72
64668;BME280;51077;42.716;23.344;2024-01-27T05:21:29;95757.75;;;7.95;46.23
64668;BME280;51077;42.716;23.344;2024-01-27T05:23:55;95757.03;;;7.94;46.05
64668;BME280;51077;42.716;23.344;2024-01-27T05:26:21;95757.28;;;7.96;46.06
64668;BME280;51077;42.716;23.344;2024-01-27T05:28:46;95759.75;;;7.94;46.02
64668;BME280;51077;42.716;23.344;2024-01-27T05:31:12;95761.78;;;7.99;47.22
64668;BME280;51077;42.716;23.344;2024-01-27T05:33:38;95761.03;;;7.99;49.14
64668;BME280;51077;42.716;23.344;2024-01-27T05:36:06;95753.88;;;8.01;48.46
64668;BME280;51077;42.716;23.344;2024-01-27T05:38:32;95766.91;;;8.18;50.61
64668;BME280;51077;42.716;23.344;2024-01-27T05:41:01;95765.97;;;8.21;52.26
64668;BME280;51077;42.716;23.344;2024-01-27T05:43:26;95765.22;;;8.20;52.47
64668;BME280;51077;42.716;23.344;2024-01-27T05:45:52;95759.75;;;8.20;52.25
64668;BME280;51077;42.716;23.344;2024-01-27T05:48:18;95774.38;;;8.17;52.22
64668;BME280;51077;42.716;23.344;2024-01-27T05:50:54;95771.38;;;8.15;51.91
64668;BME280;51077;42.716;23.344;2024-01-27T05:53:20;95783.28;;;8.12;52.01
64668;BME280;51077;42.716;23.344;2024-01-27T05:55:46;95781.50;;;8.09;51.97
64668;BME280;51077;42.716;23.344;2024-01-27T05:58:12;95790.69;;;8.06;51.52
64668;BME280;51077;42.716;23.344;2024-01-27T06:00:37;95788.91;;;8.03;51.79
64668;BME280;51077;42.716;23.344;2024-01-27T06:03:03;95787.63;;;7.98;51.97
64668;BME280;51077;42.716;23.344;2024-01-27T06:05:29;95788.13;;;7.97;51.28
64668;BME280;51077;42.716;23.344;2024-01-27T06:07:54;95781.63;;;7.94;51.60
64668;BME280;51077;42.716;23.344;2024-01-27T06:10:20;95796.25;;;7.91;51.26
64668;BME280;51077;42.716;23.344;2024-01-27T06:12:45;95793.25;;;7.89;51.48
64668;BME280;51077;42.716;23.344;2024-01-27T06:15:11;95792.97;;;7.87;51.59
64668;BME280;51077;42.716;23.344;2024-01-27T06:17:36;95808.34;;;7.85;51.25
64668;BME280;51077;42.716;23.344;2024-01-27T06:20:02;95801.84;;;7.82;51.46
64668;BME280;51077;42.716;23.344;2024-01-27T06:22:28;95803.84;;;7.81;51.26
64668;BME280;51077;42.716;23.344;2024-01-27T06:24:53;95807.06;;;7.80;51.42
64668;BME280;51077;42.716;23.344;2024-01-27T06:27:19;95817.72;;;7.78;51.08
64668;BME280;51077;42.716;23.344;2024-01-27T06:29:44;95821.69;;;7.77;50.85
64668;BME280;51077;42.716;23.344;2024-01-27T06:32:10;95825.44;;;7.79;51.68
64668;BME280;51077;42.716;23.344;2024-01-27T06:34:36;95820.28;;;7.87;53.97
64668;BME280;51077;42.716;23.344;2024-01-27T06:37:01;95820.28;;;7.87;53.25
64668;BME280;51077;42.716;23.344;2024-01-27T06:39:27;95816.06;;;7.86;54.12
64668;BME280;51077;42.716;23.344;2024-01-27T06:41:53;95833.41;;;7.83;53.41
64668;BME280;51077;42.716;23.344;2024-01-27T06:44:19;95837.88;;;7.80;53.51
64668;BME280;51077;42.716;23.344;2024-01-27T06:46:44;95832.59;;;7.77;53.28
64668;BME280;51077;42.716;23.344;2024-01-27T06:49:11;95843.00;;;7.73;53.39
64668;BME280;51077;42.716;23.344;2024-01-27T06:51:38;95850.16;;;7.70;53.40
64668;BME280;51077;42.716;23.344;2024-01-27T06:54:03;95848.84;;;7.66;53.23
64668;BME280;51077;42.716;23.344;2024-01-27T06:56:29;95836.72;;;7.67;53.32
64668;BME280;51077;42.716;23.344;2024-01-27T06:58:54;95824.56;;;7.68;53.07
64668;BME280;51077;42.716;23.344;2024-01-27T07:01:19;95819.09;;;7.68;53.26
64668;BME280;51077;42.716;23.344;2024-01-27T07:03:45;95820.78;;;7.65;53.24
64668;BME280;51077;42.716;23.344;2024-01-27T07:06:10;95825.50;;;7.65;53.42
64668;BME280;51077;42.716;23.344;2024-01-27T07:08:37;95809.47;;;7.72;53.11
64668;BME280;51077;42.716;23.344;2024-01-27T07:11:02;95798.78;;;7.74;52.96
64668;BME280;51077;42.716;23.344;2024-01-27T07:13:28;95796.53;;;7.73;52.99
64668;BME280;51077;42.716;23.344;2024-01-27T07:15:56;95808.91;;;7.68;53.41
64668;BME280;51077;42.716;23.344;2024-01-27T07:18:21;95817.31;;;7.65;53.63
64668;BME280;51077;42.716;23.344;2024-01-27T07:20:47;95811.09;;;7.64;53.57
64668;BME280;51077;42.716;23.344;2024-01-27T07:23:13;95828.25;;;7.65;53.48
64668;BME280;51077;42.716;23.344;2024-01-27T07:25:38;95830.22;;;7.64;53.18
64668;BME280;51077;42.716;23.344;2024-01-27T07:28:04;95830.72;;;7.63;53.53
64668;BME280;51077;42.716;23.344;2024-01-27T07:30:30;95838.91;;;7.63;53.53
64668;BME280;51077;42.716;23.344;2024-01-27T07:32:56;95855.84;;;7.67;53.47
64668;BME280;51077;42.716;23.344;2024-01-27T07:35:21;95866.03;;;7.66;53.71
64668;BME280;51077;42.716;23.344;2024-01-27T07:37:47;95878.72;;;7.69;53.56
64668;BME280;51077;42.716;23.344;2024-01-27T07:40:12;95884.47;;;7.71;53.41
64668;BME280;51077;42.716;23.344;2024-01-27T07:42:38;95894.16;;;7.72;53.05
64668;BME280;51077;42.716;23.344;2024-01-27T07:45:04;95901.13;;;7.73;53.37
64668;BME280;51077;42.716;23.344;2024-01-27T07:47:29;95907.81;;;7.72;53.03
64668;BME280;51077;42.716;23.344;2024-01-27T07:49:55;95914.03;;;7.73;53.22
64668;BME280;51077;42.716;23.344;2024-01-27T07:52:20;95907.81;;;7.72;52.84
64668;BME280;51077;42.716;23.344;2024-01-27T07:54:46;95915.28;;;7.72;52.92
64668;BME280;51077;42.716;23.344;2024-01-27T07:57:11;95931.66;;;7.72;52.99
64668;BME280;51077;42.716;23.344;2024-01-27T07:59:39;95938.63;;;7.73;52.79
64668;BME280;51077;42.716;23.344;2024-01-27T08:02:05;95943.59;;;7.74;52.61
64668;BME280;51077;42.716;23.344;2024-01-27T08:04:30;95950.38;;;7.79;52.34
64668;BME280;51077;42.716;23.344;2024-01-27T08:06:58;95950.19;;;7.82;52.34
64668;BME280;51077;42.716;23.344;2024-01-27T08:09:23;95943.50;;;7.84;51.92
64668;BME280;51077;42.716;23.344;2024-01-27T08:11:50;95949.97;;;7.86;51.90
64668;BME280;51077;42.716;23.344;2024-01-27T08:14:17;95942.59;;;7.92;52.07
64668;BME280;51077;42.716;23.344;2024-01-27T08:16:43;95942.41;;;7.96;51.76
64668;BME280;51077;42.716;23.344;2024-01-27T08:19:09;95952.94;;;8.03;51.53
64668;BME280;51077;42.716;23.344;2024-01-27T08:21:34;95949.84;;;8.16;51.22
64668;BME280;51077;42.716;23.344;2024-01-27T08:24:00;95939.72;;;8.22;50.99
64668;BME280;51077;42.716;23.344;2024-01-27T08:26:25;95944.50;;;8.27;51.20
64668;BME280;51077;42.716;23.344;2024-01-27T08:28:51;95945.59;;;8.35;50.61
64668;BME280;51077;42.716;23.344;2024-01-27T08:31:17;95939.75;;;8.42;50.65
64668;BME280;51077;42.716;23.344;2024-01-27T08:33:42;95930.00;;;8.62;49.95
64668;BME280;51077;42.716;23.344;2024-01-27T08:36:07;95948.88;;;9.12;49.44
64668;BME280;51077;42.716;23.344;2024-01-27T08:38:33;95954.84;;;9.42;48.86
64668;BME280;51077;42.716;23.344;2024-01-27T08:40:58;95928.75;;;9.95;47.94
64668;BME280;51077;42.716;23.344;2024-01-27T08:43:24;95923.50;;;10.56;46.65
64668;BME280;51077;42.716;23.344;2024-01-27T08:45:49;95929.09;;;11.29;46.08
64668;BME280;51077;42.716;23.344;2024-01-27T08:48:15;95911.50;;;11.94;44.92
64668;BME280;51077;42.716;23.344;2024-01-27T08:50:41;95904.53;;;12.46;43.52
64668;BME280;51077;42.716;23.344;2024-01-27T08:53:07;95898.59;;;12.77;44.01
64668;BME280;51077;42.716;23.344;2024-01-27T08:55:32;95915.53;;;13.28;47.14
64668;BME280;51077;42.716;23.344;2024-01-27T08:57:57;95907.41;;;13.91;46.33
64668;BME280;51077;42.716;23.344;2024-01-27T09:00:23;95903.44;;;14.29;46.85
64668;BME280;51077;42.716;23.344;2024-01-27T09:02:49;95903.19;;;14.52;46.96
64668;BME280;51077;42.716;23.344;2024-01-27T09:05:14;95912.94;;;14.91;46.32
64668;BME280;51077;42.716;23.344;2024-01-27T09:07:39;95906.72;;;15.36;46.30
64668;BME280;51077;42.716;23.344;2024-01-27T09:10:05;95895.97;;;15.77;45.84
64668;BME280;51077;42.716;23.344;2024-01-27T09:12:32;95901.81;;;16.14;43.00
64668;BME280;51077;42.716;23.344;2024-01-27T09:14:58;95889.72;;;16.51;41.15
64668;BME280;51077;42.716;23.344;2024-01-27T09:17:23;95906.63;;;16.74;40.48
64668;BME280;51077;42.716;23.344;2024-01-27T09:19:49;95914.25;;;16.94;39.39
64668;BME280;51077;42.716;23.344;2024-01-27T09:22:14;95901.00;;;17.00;39.45
64668;BME280;51077;42.716;23.344;2024-01-27T09:24:40;95882.59;;;17.11;37.80
64668;BME280;51077;42.716;23.344;2024-01-27T09:27:05;95896.94;;;17.22;37.09
64668;BME280;51077;42.716;23.344;2024-01-27T09:29:31;95891.41;;;17.43;37.73
64668;BME280;51077;42.716;23.344;2024-01-27T09:31:56;95908.63;;;17.70;37.78
64668;BME280;51077;42.716;23.344;2024-01-27T09:34:22;95910.22;;;18.07;36.40
64668;BME280;51077;42.716;23.344;2024-01-27T09:36:47;95917.81;;;18.07;37.25
64668;BME280;51077;42.716;23.344;2024-01-27T09:39:12;95902.41;;;17.77;36.86
64668;BME280;51077;42.716;23.344;2024-01-27T09:41:38;95908.47;;;17.47;37.45
64668;BME280;51077;42.716;23.344;2024-01-27T09:44:04;95900.75;;;17.12;37.99
64668;BME280;51077;42.716;23.344;2024-01-27T09:46:31;95895.97;;;16.65;37.72
64668;BME280;51077;42.716;23.344;2024-01-27T09:48:57;95896.06;;;16.12;38.52
64668;BME280;51077;42.716;23.344;2024-01-27T09:51:24;95903.03;;;15.59;38.98
64668;BME280;51077;42.716;23.344;2024-01-27T09:53:51;95909.63;;;15.11;38.96
64668;BME280;51077;42.716;23.344;2024-01-27T09:56:17;95909.81;;;14.62;40.26
64668;BME280;51077;42.716;23.344;2024-01-27T09:58:46;95900.06;;;14.18;40.97
64668;BME280;51077;42.716;23.344;2024-01-27T10:01:16;95917.59;;;13.77;41.01
64668;BME280;51077;42.716;23.344;2024-01-27T10:03:43;95922.19;;;13.39;41.48
64668;BME280;51077;42.716;23.344;2024-01-27T10:06:09;95933.44;;;13.11;42.82
64668;BME280;51077;42.716;23.344;2024-01-27T10:08:35;95930.63;;;12.80;43.20
64668;BME280;51077;42.716;23.344;2024-01-27T10:11:06;95925.03;;;12.50;42.98
64668;BME280;51077;42.716;23.344;2024-01-27T10:13:32;95930.16;;;12.18;43.29
64668;BME280;51077;42.716;23.344;2024-01-27T10:16:05;95936.00;;;11.92;44.09
64668;BME280;51077;42.716;23.344;2024-01-27T10:18:32;95924.03;;;11.62;44.76
64668;BME280;51077;42.716;23.344;2024-01-27T10:20:58;95931.81;;;11.46;45.03
64668;BME280;51077;42.716;23.344;2024-01-27T10:23:24;95951.78;;;11.19;45.30
64668;BME280;51077;42.716;23.344;2024-01-27T10:25:50;95942.81;;;11.01;46.51
64668;BME280;51077;42.716;23.344;2024-01-27T10:28:18;95942.78;;;10.90;47.71
64668;BME280;51077;42.716;23.344;2024-01-27T10:30:45;95939.53;;;10.80;49.15
64668;BME280;51077;42.716;23.344;2024-01-27T10:33:11;95945.00;;;10.64;49.20
64668;BME280;51077;42.716;23.344;2024-01-27T10:35:39;95955.19;;;10.46;49.14
64668;BME280;51077;42.716;23.344;2024-01-27T10:38:05;95947.63;;;10.30;49.18
64668;BME280;51077;42.716;23.344;2024-01-27T10:40:30;95953.06;;;10.19;49.31
64668;BME280;51077;42.716;23.344;2024-01-27T10:43:03;95961.72;;;10.06;49.78
64668;BME280;51077;42.716;23.344;2024-01-27T10:45:37;95962.41;;;10.01;49.84
64668;BME280;51077;42.716;23.344;2024-01-27T10:48:04;95970.38;;;9.93;49.86
64668;BME280;51077;42.716;23.344;2024-01-27T10:50:34;95961.34;;;9.87;50.28
64668;BME280;51077;42.716;23.344;2024-01-27T10:53:01;95980.00;;;9.77;50.72
64668;BME280;51077;42.716;23.344;2024-01-27T10:55:28;95955.31;;;9.77;50.96
64668;BME280;51077;42.716;23.344;2024-01-27T10:57:55;95990.22;;;9.77;51.31
64668;BME280;51077;42.716;23.344;2024-01-27T11:00:22;95976.22;;;9.75;51.24
64668;BME280;51077;42.716;23.344;2024-01-27T11:02:49;95989.66;;;9.67;51.56
64668;BME280;51077;42.716;23.344;2024-01-27T11:05:19;95992.41;;;9.67;51.50
64668;BME280;51077;42.716;23.344;2024-01-27T11:07:46;95985.13;;;9.64;51.71
64668;BME280;51077;42.716;23.344;2024-01-27T11:10:11;95982.63;;;9.61;51.53
64668;BME280;51077;42.716;23.344;2024-01-27T11:12:37;95983.88;;;9.60;51.69
64668;BME280;51077;42.716;23.344;2024-01-27T11:15:03;95982.09;;;9.56;52.15
64668;BME280;51077;42.716;23.344;2024-01-27T11:17:38;95981.34;;;9.56;52.13
64668;BME280;51077;42.716;23.344;2024-01-27T11:20:06;95968.59;;;9.53;52.25
64668;BME280;51077;42.716;23.344;2024-01-27T11:22:32;95981.03;;;9.48;52.30
64668;BME280;51077;42.716;23.344;2024-01-27T11:25:07;95983.00;;;9.42;52.01
64668;BME280;51077;42.716;23.344;2024-01-27T11:27:32;95981.97;;;9.40;51.90
64668;BME280;51077;42.716;23.344;2024-01-27T11:29:58;95990.84;;;9.29;51.98
64668;BME280;51077;42.716;23.344;2024-01-27T11:32:23;95986.84;;;9.24;52.20
64668;BME280;51077;42.716;23.344;2024-01-27T11:34:49;95995.00;;;9.19;52.01
64668;BME280;51077;42.716;23.344;2024-01-27T11:37:16;95987.47;;;9.14;52.47
64668;BME280;51077;42.716;23.344;2024-01-27T11:39:42;95994.63;;;9.05;52.40
64668;BME280;51077;42.716;23.344;2024-01-27T11:42:12;95991.09;;;8.99;52.74
64668;BME280;51077;42.716;23.344;2024-01-27T11:44:39;95988.56;;;8.96;52.76
64668;BME280;51077;42.716;23.344;2024-01-27T11:47:16;95990.00;;;8.91;52.47
64668;BME280;51077;42.716;23.344;2024-01-27T11:49:52;95996.47;;;8.88;52.48
64668;BME280;51077;42.716;23.344;2024-01-27T11:52:23;95998.38;;;8.82;52.36
64668;BME280;51077;42.716;23.344;2024-01-27T11:54:59;96004.34;;;8.80;52.69
64668;BME280;51077;42.716;23.344;2024-01-27T11:57:25;96005.28;;;8.77;52.52
64668;BME280;51077;42.716;23.344;2024-01-27T11:59:51;96012.22;;;8.73;52.30
64668;BME280;51077;42.716;23.344;2024-01-27T12:02:18;96012.16;;;8.67;52.23
64668;BME280;51077;42.716;23.344;2024-01-27T12:04:43;96016.88;;;8.67;52.01
64668;BME280;51077;42.716;23.344;2024-01-27T12:07:09;96022.28;;;8.61;52.12
64668;BME280;51077;42.716;23.344;2024-01-27T12:09:36;96029.47;;;8.59;52.12
64668;BME280;51077;42.716;23.344;2024-01-27T12:12:03;96041.16;;;8.59;52.08
64668;BME280;51077;42.716;23.344;2024-01-27T12:14:44;96012.31;;;8.58;51.78
64668;BME280;51077;42.716;23.344;2024-01-27T12:17:11;96018.78;;;8.61;51.53
64668;BME280;51077;42.716;23.344;2024-01-27T12:19:45;96024.88;;;8.70;51.48
64668;BME280;51077;42.716;23.344;2024-01-27T12:22:21;96029.03;;;8.86;51.56
64668;BME280;51077;42.716;23.344;2024-01-27T12:24:47;96025.75;;;9.08;50.97
64668;BME280;51077;42.716;23.344;2024-01-27T12:27:13;96029.91;;;9.55;50.15
64668;BME280;51077;42.716;23.344;2024-01-27T12:29:41;96032.84;;;10.21;48.75
64668;BME280;51077;42.716;23.344;2024-01-27T12:32:06;96028.63;;;10.74;47.96
64668;BME280;51077;42.716;23.344;2024-01-27T12:34:32;96035.78;;;11.37;47.85
64668;BME280;51077;42.716;23.344;2024-01-27T12:36:58;96022.53;;;11.46;46.32
64668;BME280;51077;42.716;23.344;2024-01-27T12:39:23;96026.53;;;11.51;45.17
64668;BME280;51077;42.716;23.344;2024-01-27T12:41:48;96011.03;;;11.53;45.34
64668;BME280;51077;42.716;23.344;2024-01-27T12:44:14;96040.78;;;11.49;44.92
64668;BME280;51077;42.716;23.344;2024-01-27T12:46:40;96020.03;;;11.65;44.90
64668;BME280;51077;42.716;23.344;2024-01-27T12:49:05;96035.53;;;12.07;44.54
64668;BME280;51077;42.716;23.344;2024-01-27T12:51:31;96034.63;;;12.57;44.07